sensor_id;sensor_type;location;lat;lon;timestamp;pressure;altitude;pressure_sealevel;temperature;humidity
38616;BME280;24370;51.986;4.666;2023-01-27T00:00:19;102664.03;;;11.36;58.43
38616;BME280;24370;51.986;4.666;2023-01-27T00:02:45;102662.00;;;11.77;57.43
38616;BME280;24370;51.986;4.666;2023-01-27T00:05:12;102671.44;;;11.09;60.47
38616;BME280;24370;51.986;4.666;2023-01-27T00:07:38;102660.53;;;11.94;57.72
38616;BME280;24370;51.986;4.666;2023-01-27T00:10:14;102656.44;;;11.55;58.26
38616;BME280;24370;51.986;4.666;2023-01-27T00:12:40;102658.38;;;11.65;57.15
38616;BME280;24370;51.986;4.666;2023-01-27T00:15:24;102659.66;;;11.35;56.93
38616;BME280;24370;51.986;4.666;2023-01-27T00:17:49;102660.91;;;12.25;55.47
38616;BME280;24370;51.986;4.666;2023-01-27T00:20:15;102660.91;;;12.22;55.76
38616;BME280;24370;51.986;4.666;2023-01-27T00:23:20;102668.84;;;11.65;56.07
38616;BME280;24370;51.986;4.666;2023-01-27T00:26:08;102650.13;;;12.00;55.14
38616;BME280;24370;51.986;4.666;2023-01-27T00:28:35;102650.09;;;11.97;56.11
38616;BME280;24370;51.986;4.666;2023-01-27T00:31:01;102653.66;;;12.01;53.99
38616;BME280;24370;51.986;4.666;2023-01-27T00:33:26;102647.47;;;12.72;53.25
38616;BME280;24370;51.986;4.666;2023-01-27T00:36:03;102647.59;;;12.85;51.87
38616;BME280;24370;51.986;4.666;2023-01-27T00:38:32;102660.25;;;11.76;54.68
38616;BME280;24370;51.986;4.666;2023-01-27T00:40:58;102654.66;;;12.14;54.31
38616;BME280;24370;51.986;4.666;2023-01-27T00:43:42;102661.47;;;11.41;55.83
38616;BME280;24370;51.986;4.666;2023-01-27T00:46:07;102650.91;;;11.33;55.51
38616;BME280;24370;51.986;4.666;2023-01-27T00:48:33;102650.06;;;11.94;54.47
38616;BME280;24370;51.986;4.666;2023-01-27T00:50:59;102653.19;;;11.13;57.12
38616;BME280;24370;51.986;4.666;2023-01-27T00:53:25;102653.81;;;11.53;56.02
38616;BME280;24370;51.986;4.666;2023-01-27T00:55:50;102653.88;;;10.11;59.24
38616;BME280;24370;51.986;4.666;2023-01-27T00:58:16;102654.19;;;11.20;57.73
38616;BME280;24370;51.986;4.666;2023-01-27T01:00:41;102657.34;;;11.54;56.48
38616;BME280;24370;51.986;4.666;2023-01-27T01:03:07;102661.59;;;10.48;57.27
38616;BME280;24370;51.986;4.666;2023-01-27T01:05:32;102660.13;;;11.66;55.10
38616;BME280;24370;51.986;4.666;2023-01-27T01:07:57;102662.78;;;11.69;54.42
38616;BME280;24370;51.986;4.666;2023-01-27T01:10:23;102675.41;;;10.41;57.88
38616;BME280;24370;51.986;4.666;2023-01-27T01:12:48;102661.81;;;11.08;57.16
38616;BME280;24370;51.986;4.666;2023-01-27T01:15:13;102667.84;;;11.03;56.05
38616;BME280;24370;51.986;4.666;2023-01-27T01:17:39;102661.00;;;11.10;55.79
38616;BME280;24370;51.986;4.666;2023-01-27T01:20:04;102669.25;;;10.83;56.61
38616;BME280;24370;51.986;4.666;2023-01-27T01:22:30;102677.47;;;11.58;55.40
38616;BME280;24370;51.986;4.666;2023-01-27T01:24:55;102671.28;;;10.53;57.13
38616;BME280;24370;51.986;4.666;2023-01-27T01:27:21;102680.28;;;9.84;60.59
38616;BME280;24370;51.986;4.666;2023-01-27T01:29:46;102666.91;;;10.10;59.57
38616;BME280;24370;51.986;4.666;2023-01-27T01:32:12;102670.59;;;10.19;59.52
38616;BME280;24370;51.986;4.666;2023-01-27T01:34:38;102666.13;;;10.57;58.31
38616;BME280;24370;51.986;4.666;2023-01-27T01:37:03;102671.63;;;10.26;58.56
38616;BME280;24370;51.986;4.666;2023-01-27T01:39:30;102676.59;;;9.74;59.20
38616;BME280;24370;51.986;4.666;2023-01-27T01:41:56;102674.56;;;10.89;56.89
38616;BME280;24370;51.986;4.666;2023-01-27T01:44:27;102676.19;;;10.37;56.74
38616;BME280;24370;51.986;4.666;2023-01-27T01:46:52;102689.50;;;10.08;59.28
38616;BME280;24370;51.986;4.666;2023-01-27T01:49:22;102697.91;;;11.27;55.54
38616;BME280;24370;51.986;4.666;2023-01-27T01:51:53;102694.00;;;10.56;56.91
38616;BME280;24370;51.986;4.666;2023-01-27T01:54:40;102694.13;;;11.10;55.68
38616;BME280;24370;51.986;4.666;2023-01-27T01:57:11;102689.56;;;10.52;57.33
38616;BME280;24370;51.986;4.666;2023-01-27T01:59:41;102696.22;;;10.80;57.04
38616;BME280;24370;51.986;4.666;2023-01-27T02:02:12;102696.03;;;10.28;57.85
38616;BME280;24370;51.986;4.666;2023-01-27T02:04:55;102688.63;;;10.94;54.43
38616;BME280;24370;51.986;4.666;2023-01-27T02:10:00;102686.00;;;10.47;56.78
38616;BME280;24370;51.986;4.666;2023-01-27T02:12:26;102689.72;;;10.60;56.82
38616;BME280;24370;51.986;4.666;2023-01-27T02:14:52;102687.56;;;10.84;55.45
38616;BME280;24370;51.986;4.666;2023-01-27T02:17:18;102697.53;;;10.17;55.39
38616;BME280;24370;51.986;4.666;2023-01-27T02:23:10;102697.75;;;10.26;56.49
38616;BME280;24370;51.986;4.666;2023-01-27T02:28:27;102693.25;;;10.62;55.10
38616;BME280;24370;51.986;4.666;2023-01-27T02:30:53;102690.06;;;9.94;57.84
38616;BME280;24370;51.986;4.666;2023-01-27T02:33:18;102699.59;;;9.54;60.45
38616;BME280;24370;51.986;4.666;2023-01-27T02:36:09;102698.00;;;9.59;59.09
38616;BME280;24370;51.986;4.666;2023-01-27T02:38:51;102702.06;;;10.26;56.45
38616;BME280;24370;51.986;4.666;2023-01-27T02:43:43;102688.97;;;10.24;57.02
38616;BME280;24370;51.986;4.666;2023-01-27T02:46:08;102698.09;;;10.02;57.07
38616;BME280;24370;51.986;4.666;2023-01-27T02:48:33;102698.31;;;10.11;56.62
38616;BME280;24370;51.986;4.666;2023-01-27T02:50:59;102700.97;;;10.56;54.64
38616;BME280;24370;51.986;4.666;2023-01-27T02:53:24;102702.81;;;10.20;55.84
38616;BME280;24370;51.986;4.666;2023-01-27T02:55:50;102698.97;;;10.02;57.36
38616;BME280;24370;51.986;4.666;2023-01-27T02:58:15;102705.00;;;9.60;56.74
38616;BME280;24370;51.986;4.666;2023-01-27T03:00:42;102700.00;;;9.71;57.89
38616;BME280;24370;51.986;4.666;2023-01-27T03:03:07;102698.56;;;9.84;57.77
38616;BME280;24370;51.986;4.666;2023-01-27T03:05:33;102705.41;;;9.79;57.59
38616;BME280;24370;51.986;4.666;2023-01-27T03:07:58;102711.44;;;10.16;57.52
38616;BME280;24370;51.986;4.666;2023-01-27T03:10:24;102707.31;;;9.86;58.57
38616;BME280;24370;51.986;4.666;2023-01-27T03:12:49;102703.84;;;9.50;59.37
38616;BME280;24370;51.986;4.666;2023-01-27T03:15:14;102701.94;;;10.18;56.98
38616;BME280;24370;51.986;4.666;2023-01-27T03:18:04;102702.66;;;10.12;56.95
38616;BME280;24370;51.986;4.666;2023-01-27T03:20:46;102709.91;;;11.13;54.14
38616;BME280;24370;51.986;4.666;2023-01-27T03:23:14;102710.09;;;10.76;54.81
38616;BME280;24370;51.986;4.666;2023-01-27T03:25:44;102705.00;;;10.40;56.79
38616;BME280;24370;51.986;4.666;2023-01-27T03:28:10;102710.38;;;10.46;55.16
38616;BME280;24370;51.986;4.666;2023-01-27T03:30:37;102722.38;;;9.98;56.10
38616;BME280;24370;51.986;4.666;2023-01-27T03:33:03;102719.19;;;10.95;53.76
38616;BME280;24370;51.986;4.666;2023-01-27T03:35:29;102720.78;;;10.89;54.25
38616;BME280;24370;51.986;4.666;2023-01-27T03:38:01;102727.13;;;10.56;55.62
38616;BME280;24370;51.986;4.666;2023-01-27T03:40:45;102717.91;;;9.92;57.24
38616;BME280;24370;51.986;4.666;2023-01-27T03:43:29;102724.97;;;9.96;56.93
38616;BME280;24370;51.986;4.666;2023-01-27T03:46:13;102735.88;;;9.43;58.08
38616;BME280;24370;51.986;4.666;2023-01-27T03:48:52;102733.88;;;9.68;59.65
38616;BME280;24370;51.986;4.666;2023-01-27T03:51:20;102736.97;;;9.88;58.48
38616;BME280;24370;51.986;4.666;2023-01-27T03:53:46;102731.53;;;9.79;56.27
38616;BME280;24370;51.986;4.666;2023-01-27T03:56:13;102740.06;;;9.72;57.47
38616;BME280;24370;51.986;4.666;2023-01-27T03:58:39;102743.84;;;10.23;56.88
38616;BME280;24370;51.986;4.666;2023-01-27T04:01:14;102756.53;;;10.06;57.31
38616;BME280;24370;51.986;4.666;2023-01-27T04:03:40;102749.56;;;9.70;58.42
38616;BME280;24370;51.986;4.666;2023-01-27T04:06:29;102753.78;;;9.28;58.46
38616;BME280;24370;51.986;4.666;2023-01-27T04:09:28;102748.09;;;10.19;55.67
38616;BME280;24370;51.986;4.666;2023-01-27T04:11:55;102747.75;;;9.67;57.61
38616;BME280;24370;51.986;4.666;2023-01-27T04:14:23;102767.16;;;10.15;55.78
38616;BME280;24370;51.986;4.666;2023-01-27T04:16:49;102768.16;;;10.58;54.29
38616;BME280;24370;51.986;4.666;2023-01-27T04:19:15;102768.78;;;9.37;58.35
38616;BME280;24370;51.986;4.666;2023-01-27T04:21:41;102769.28;;;10.31;56.00
38616;BME280;24370;51.986;4.666;2023-01-27T04:24:06;102778.59;;;9.82;55.08
38616;BME280;24370;51.986;4.666;2023-01-27T04:26:33;102781.50;;;10.32;55.29
38616;BME280;24370;51.986;4.666;2023-01-27T04:29:03;102783.63;;;10.49;54.55
38616;BME280;24370;51.986;4.666;2023-01-27T04:31:28;102779.28;;;10.10;54.61
38616;BME280;24370;51.986;4.666;2023-01-27T04:33:54;102783.81;;;9.82;55.64
38616;BME280;24370;51.986;4.666;2023-01-27T04:36:19;102787.81;;;9.32;56.63
38616;BME280;24370;51.986;4.666;2023-01-27T04:38:45;102782.66;;;9.69;55.29
38616;BME280;24370;51.986;4.666;2023-01-27T04:41:10;102784.44;;;9.37;56.90
38616;BME280;24370;51.986;4.666;2023-01-27T04:43:39;102794.28;;;9.82;54.13
38616;BME280;24370;51.986;4.666;2023-01-27T04:46:05;102789.84;;;10.54;53.65
38616;BME280;24370;51.986;4.666;2023-01-27T04:48:30;102792.28;;;9.72;54.13
38616;BME280;24370;51.986;4.666;2023-01-27T04:50:55;102791.78;;;8.86;56.29
38616;BME280;24370;51.986;4.666;2023-01-27T04:53:21;102798.25;;;9.66;54.87
38616;BME280;24370;51.986;4.666;2023-01-27T04:55:48;102795.22;;;10.22;53.17
38616;BME280;24370;51.986;4.666;2023-01-27T04:58:15;102795.13;;;10.19;53.22
38616;BME280;24370;51.986;4.666;2023-01-27T05:00:42;102797.81;;;9.84;54.15
38616;BME280;24370;51.986;4.666;2023-01-27T05:03:08;102801.31;;;10.59;51.46
38616;BME280;24370;51.986;4.666;2023-01-27T05:05:34;102791.50;;;9.41;53.29
38616;BME280;24370;51.986;4.666;2023-01-27T05:08:08;102793.84;;;10.37;52.16
38616;BME280;24370;51.986;4.666;2023-01-27T05:10:34;102792.59;;;9.84;51.94
38616;BME280;24370;51.986;4.666;2023-01-27T05:13:00;102805.81;;;10.28;51.24
38616;BME280;24370;51.986;4.666;2023-01-27T05:15:27;102812.72;;;9.88;52.85
38616;BME280;24370;51.986;4.666;2023-01-27T05:17:53;102803.66;;;9.74;53.15
38616;BME280;24370;51.986;4.666;2023-01-27T05:20:18;102802.19;;;10.23;51.74
38616;BME280;24370;51.986;4.666;2023-01-27T05:22:43;102802.34;;;11.12;49.38
38616;BME280;24370;51.986;4.666;2023-01-27T05:25:09;102807.75;;;10.77;49.79
38616;BME280;24370;51.986;4.666;2023-01-27T05:27:34;102806.78;;;9.95;51.30
38616;BME280;24370;51.986;4.666;2023-01-27T05:30:00;102811.59;;;9.43;52.07
38616;BME280;24370;51.986;4.666;2023-01-27T05:32:25;102807.03;;;9.70;51.13
38616;BME280;24370;51.986;4.666;2023-01-27T05:34:51;102813.06;;;10.39;50.14
38616;BME280;24370;51.986;4.666;2023-01-27T05:37:16;102812.59;;;10.58;49.96
38616;BME280;24370;51.986;4.666;2023-01-27T05:39:41;102810.81;;;10.98;48.94
38616;BME280;24370;51.986;4.666;2023-01-27T05:42:07;102815.44;;;10.67;50.48
38616;BME280;24370;51.986;4.666;2023-01-27T05:44:32;102829.09;;;10.54;49.72
38616;BME280;24370;51.986;4.666;2023-01-27T05:46:58;102827.53;;;10.62;49.08
38616;BME280;24370;51.986;4.666;2023-01-27T05:49:23;102822.69;;;10.05;49.90
38616;BME280;24370;51.986;4.666;2023-01-27T05:51:48;102829.25;;;10.24;50.79
38616;BME280;24370;51.986;4.666;2023-01-27T05:54:14;102821.69;;;10.34;49.31
38616;BME280;24370;51.986;4.666;2023-01-27T05:56:39;102821.69;;;10.34;50.21
38616;BME280;24370;51.986;4.666;2023-01-27T05:59:05;102826.66;;;10.25;50.67
38616;BME280;24370;51.986;4.666;2023-01-27T06:01:33;102828.38;;;9.53;50.78
38616;BME280;24370;51.986;4.666;2023-01-27T06:03:59;102828.16;;;10.14;50.20
38616;BME280;24370;51.986;4.666;2023-01-27T06:06:26;102826.38;;;9.43;51.76
38616;BME280;24370;51.986;4.666;2023-01-27T06:08:52;102829.84;;;9.10;52.22
38616;BME280;24370;51.986;4.666;2023-01-27T06:11:20;102831.81;;;10.22;50.37
38616;BME280;24370;51.986;4.666;2023-01-27T06:13:46;102832.22;;;9.67;50.36
38616;BME280;24370;51.986;4.666;2023-01-27T06:16:14;102837.22;;;10.68;49.66
38616;BME280;24370;51.986;4.666;2023-01-27T06:18:42;102841.53;;;8.94;51.67
38616;BME280;24370;51.986;4.666;2023-01-27T06:21:09;102827.91;;;9.34;52.38
38616;BME280;24370;51.986;4.666;2023-01-27T06:23:35;102835.25;;;9.84;50.28
38616;BME280;24370;51.986;4.666;2023-01-27T06:26:06;102837.44;;;10.38;49.20
38616;BME280;24370;51.986;4.666;2023-01-27T06:28:33;102841.69;;;10.74;48.14
38616;BME280;24370;51.986;4.666;2023-01-27T06:31:10;102839.00;;;10.69;49.04
38616;BME280;24370;51.986;4.666;2023-01-27T06:33:37;102832.00;;;9.58;50.43
38616;BME280;24370;51.986;4.666;2023-01-27T06:36:05;102848.09;;;9.10;51.92
38616;BME280;24370;51.986;4.666;2023-01-27T06:38:30;102839.38;;;9.41;51.08
38616;BME280;24370;51.986;4.666;2023-01-27T06:40:56;102841.22;;;9.79;49.96
38616;BME280;24370;51.986;4.666;2023-01-27T06:43:22;102842.47;;;10.31;48.77
38616;BME280;24370;51.986;4.666;2023-01-27T06:45:50;102852.63;;;9.82;49.59
38616;BME280;24370;51.986;4.666;2023-01-27T06:48:16;102853.44;;;10.16;49.08
38616;BME280;24370;51.986;4.666;2023-01-27T06:50:41;102853.19;;;10.41;48.41
38616;BME280;24370;51.986;4.666;2023-01-27T06:53:07;102858.81;;;9.53;49.78
38616;BME280;24370;51.986;4.666;2023-01-27T06:55:34;102856.13;;;9.83;49.22
38616;BME280;24370;51.986;4.666;2023-01-27T06:58:08;102861.69;;;10.33;48.06
38616;BME280;24370;51.986;4.666;2023-01-27T07:00:34;102870.06;;;8.31;50.76
38616;BME280;24370;51.986;4.666;2023-01-27T07:03:00;102861.47;;;9.54;48.17
38616;BME280;24370;51.986;4.666;2023-01-27T07:05:26;102869.91;;;8.83;49.74
38616;BME280;24370;51.986;4.666;2023-01-27T07:07:51;102862.22;;;9.83;48.66
38616;BME280;24370;51.986;4.666;2023-01-27T07:10:17;102862.63;;;9.99;48.09
38616;BME280;24370;51.986;4.666;2023-01-27T07:12:42;102864.84;;;9.50;48.93
38616;BME280;24370;51.986;4.666;2023-01-27T07:15:09;102866.63;;;9.86;47.89
38616;BME280;24370;51.986;4.666;2023-01-27T07:17:35;102872.00;;;9.91;47.41
38616;BME280;24370;51.986;4.666;2023-01-27T07:20:01;102868.34;;;9.84;47.26
38616;BME280;24370;51.986;4.666;2023-01-27T07:22:27;102862.91;;;9.76;48.05
38616;BME280;24370;51.986;4.666;2023-01-27T07:24:52;102875.13;;;10.47;46.51
38616;BME280;24370;51.986;4.666;2023-01-27T07:27:20;102880.00;;;10.33;46.59
38616;BME280;24370;51.986;4.666;2023-01-27T07:29:46;102872.03;;;11.07;45.37
38616;BME280;24370;51.986;4.666;2023-01-27T07:32:14;102868.19;;;10.89;45.48
38616;BME280;24370;51.986;4.666;2023-01-27T07:34:40;102884.38;;;9.64;47.17
38616;BME280;24370;51.986;4.666;2023-01-27T07:37:05;102872.25;;;10.37;46.90
38616;BME280;24370;51.986;4.666;2023-01-27T07:39:31;102876.31;;;9.90;47.39
38616;BME280;24370;51.986;4.666;2023-01-27T07:41:58;102879.53;;;10.15;46.47
38616;BME280;24370;51.986;4.666;2023-01-27T07:44:25;102895.25;;;10.16;46.62
38616;BME280;24370;51.986;4.666;2023-01-27T07:46:50;102896.13;;;9.16;49.24
38616;BME280;24370;51.986;4.666;2023-01-27T07:49:16;102908.03;;;9.39;48.51
38616;BME280;24370;51.986;4.666;2023-01-27T07:51:41;102910.31;;;9.26;48.40
38616;BME280;24370;51.986;4.666;2023-01-27T07:54:06;102907.25;;;10.42;46.28
38616;BME280;24370;51.986;4.666;2023-01-27T07:56:32;102917.66;;;9.40;47.71
38616;BME280;24370;51.986;4.666;2023-01-27T07:59:00;102921.50;;;9.22;47.60
38616;BME280;24370;51.986;4.666;2023-01-27T08:01:26;102922.19;;;9.47;48.48
38616;BME280;24370;51.986;4.666;2023-01-27T08:03:51;102913.75;;;9.57;46.92
38616;BME280;24370;51.986;4.666;2023-01-27T08:06:16;102918.22;;;9.29;47.28
38616;BME280;24370;51.986;4.666;2023-01-27T08:08:42;102931.13;;;8.94;48.85
38616;BME280;24370;51.986;4.666;2023-01-27T08:11:09;102917.69;;;10.42;45.80
38616;BME280;24370;51.986;4.666;2023-01-27T08:13:36;102926.81;;;10.99;44.82
38616;BME280;24370;51.986;4.666;2023-01-27T08:16:03;102923.84;;;10.09;45.54
38616;BME280;24370;51.986;4.666;2023-01-27T08:18:30;102924.13;;;10.21;46.02
38616;BME280;24370;51.986;4.666;2023-01-27T08:21:03;102927.41;;;10.84;45.26
38616;BME280;24370;51.986;4.666;2023-01-27T08:23:29;102934.78;;;10.64;45.33
38616;BME280;24370;51.986;4.666;2023-01-27T08:25:58;102934.69;;;10.26;46.77
38616;BME280;24370;51.986;4.666;2023-01-27T08:28:24;102927.09;;;11.54;44.20
38616;BME280;24370;51.986;4.666;2023-01-27T08:30:51;102943.81;;;11.18;44.94
38616;BME280;24370;51.986;4.666;2023-01-27T08:33:21;102939.13;;;10.63;45.99
38616;BME280;24370;51.986;4.666;2023-01-27T08:35:47;102940.22;;;9.70;47.29
38616;BME280;24370;51.986;4.666;2023-01-27T08:38:14;102924.06;;;10.18;46.97
38616;BME280;24370;51.986;4.666;2023-01-27T08:40:41;102936.22;;;9.82;47.04
38616;BME280;24370;51.986;4.666;2023-01-27T08:43:07;102940.47;;;10.84;45.86
38616;BME280;24370;51.986;4.666;2023-01-27T08:45:33;102936.09;;;10.46;46.06
38616;BME280;24370;51.986;4.666;2023-01-27T08:47:58;102944.75;;;10.09;46.49
38616;BME280;24370;51.986;4.666;2023-01-27T08:50:23;102943.78;;;10.39;45.89
38616;BME280;24370;51.986;4.666;2023-01-27T08:52:49;102946.09;;;10.64;45.19
38616;BME280;24370;51.986;4.666;2023-01-27T08:55:14;102935.38;;;10.17;45.80
38616;BME280;24370;51.986;4.666;2023-01-27T08:57:40;102939.31;;;10.73;45.29
38616;BME280;24370;51.986;4.666;2023-01-27T09:00:07;102950.34;;;10.97;45.01
38616;BME280;24370;51.986;4.666;2023-01-27T09:02:33;102946.09;;;11.02;44.15
38616;BME280;24370;51.986;4.666;2023-01-27T09:04:59;102942.38;;;11.32;43.10
38616;BME280;24370;51.986;4.666;2023-01-27T09:07:24;102941.66;;;10.98;43.72
38616;BME280;24370;51.986;4.666;2023-01-27T09:09:49;102946.03;;;10.61;45.04
38616;BME280;24370;51.986;4.666;2023-01-27T09:12:15;102945.44;;;10.37;45.68
38616;BME280;24370;51.986;4.666;2023-01-27T09:14:41;102945.47;;;10.03;46.32
38616;BME280;24370;51.986;4.666;2023-01-27T09:17:06;102943.47;;;9.94;46.52
38616;BME280;24370;51.986;4.666;2023-01-27T09:19:31;102950.09;;;10.15;46.18
38616;BME280;24370;51.986;4.666;2023-01-27T09:21:57;102951.56;;;10.74;44.99
38616;BME280;24370;51.986;4.666;2023-01-27T09:24:23;102951.06;;;10.18;44.63
38616;BME280;24370;51.986;4.666;2023-01-27T09:26:48;102948.16;;;9.73;46.44
38616;BME280;24370;51.986;4.666;2023-01-27T09:29:13;102944.78;;;10.45;45.37
38616;BME280;24370;51.986;4.666;2023-01-27T09:31:39;102964.84;;;9.47;46.73
38616;BME280;24370;51.986;4.666;2023-01-27T09:34:04;102962.03;;;9.40;47.50
38616;BME280;24370;51.986;4.666;2023-01-27T09:36:32;102954.63;;;9.87;47.21
38616;BME280;24370;51.986;4.666;2023-01-27T09:39:05;102960.41;;;9.45;48.13
38616;BME280;24370;51.986;4.666;2023-01-27T09:57:58;102956.53;;;9.30;50.08
38616;BME280;24370;51.986;4.666;2023-01-27T10:00:36;102956.44;;;9.58;48.74
38616;BME280;24370;51.986;4.666;2023-01-27T10:08:43;102943.06;;;9.79;48.21
38616;BME280;24370;51.986;4.666;2023-01-27T10:11:22;102944.72;;;10.42;47.41
38616;BME280;24370;51.986;4.666;2023-01-27T10:14:08;102954.34;;;11.21;45.75
38616;BME280;24370;51.986;4.666;2023-01-27T10:16:51;102946.91;;;12.37;42.99
38616;BME280;24370;51.986;4.666;2023-01-27T10:27:47;102958.28;;;11.42;43.14
38616;BME280;24370;51.986;4.666;2023-01-27T10:30:26;102949.75;;;11.98;42.75
38616;BME280;24370;51.986;4.666;2023-01-27T10:33:06;102955.03;;;11.55;43.09
38616;BME280;24370;51.986;4.666;2023-01-27T10:41:42;102955.22;;;11.22;43.61
38616;BME280;24370;51.986;4.666;2023-01-27T10:47:08;102947.50;;;12.76;41.80
38616;BME280;24370;51.986;4.666;2023-01-27T10:49:46;102954.88;;;11.46;42.95
38616;BME280;24370;51.986;4.666;2023-01-27T10:52:19;102951.47;;;12.48;41.92
38616;BME280;24370;51.986;4.666;2023-01-27T10:57:35;102951.34;;;11.91;42.61
38616;BME280;24370;51.986;4.666;2023-01-27T11:02:56;102957.59;;;11.09;45.03
38616;BME280;24370;51.986;4.666;2023-01-27T11:05:31;102953.19;;;10.33;46.63
38616;BME280;24370;51.986;4.666;2023-01-27T11:08:02;102953.84;;;11.39;44.56
38616;BME280;24370;51.986;4.666;2023-01-27T11:10:35;102953.97;;;10.66;45.67
38616;BME280;24370;51.986;4.666;2023-01-27T11:13:03;102945.25;;;11.03;45.21
38616;BME280;24370;51.986;4.666;2023-01-27T11:15:33;102940.38;;;11.65;44.20
38616;BME280;24370;51.986;4.666;2023-01-27T11:18:24;102940.22;;;11.56;45.02
38616;BME280;24370;51.986;4.666;2023-01-27T11:21:04;102947.25;;;10.76;45.73
38616;BME280;24370;51.986;4.666;2023-01-27T11:23:32;102940.84;;;11.01;46.32
38616;BME280;24370;51.986;4.666;2023-01-27T11:28:46;102932.69;;;11.28;45.07
38616;BME280;24370;51.986;4.666;2023-01-27T11:31:24;102933.25;;;11.58;45.37
38616;BME280;24370;51.986;4.666;2023-01-27T11:33:59;102931.84;;;11.29;45.24
38616;BME280;24370;51.986;4.666;2023-01-27T11:36:29;102934.72;;;11.00;45.92
38616;BME280;24370;51.986;4.666;2023-01-27T11:38:55;102935.50;;;11.37;44.94
38616;BME280;24370;51.986;4.666;2023-01-27T11:41:25;102939.97;;;11.43;44.92
38616;BME280;24370;51.986;4.666;2023-01-27T11:43:51;102925.66;;;12.19;44.31
38616;BME280;24370;51.986;4.666;2023-01-27T11:46:20;102919.44;;;12.14;43.34
38616;BME280;24370;51.986;4.666;2023-01-27T11:48:50;102928.94;;;12.07;44.31
38616;BME280;24370;51.986;4.666;2023-01-27T11:51:23;102923.91;;;12.21;43.41
38616;BME280;24370;51.986;4.666;2023-01-27T11:56:21;102922.59;;;11.48;44.92
38616;BME280;24370;51.986;4.666;2023-01-27T11:59:02;102931.66;;;11.22;44.95
38616;BME280;24370;51.986;4.666;2023-01-27T12:02:21;102920.81;;;11.93;44.99
38616;BME280;24370;51.986;4.666;2023-01-27T12:04:58;102911.00;;;12.92;43.08
38616;BME280;24370;51.986;4.666;2023-01-27T12:09:56;102913.91;;;11.95;44.03
38616;BME280;24370;51.986;4.666;2023-01-27T12:12:24;102913.44;;;10.85;46.81
38616;BME280;24370;51.986;4.666;2023-01-27T12:14:59;102905.88;;;11.89;45.41
38616;BME280;24370;51.986;4.666;2023-01-27T12:17:38;102913.09;;;11.09;46.32
38616;BME280;24370;51.986;4.666;2023-01-27T12:20:32;102913.19;;;10.74;48.54
38616;BME280;24370;51.986;4.666;2023-01-27T12:23:50;102908.41;;;10.94;47.83
38616;BME280;24370;51.986;4.666;2023-01-27T12:25:52;102904.91;;;11.84;46.24
38616;BME280;24370;51.986;4.666;2023-01-27T12:28:34;102911.97;;;11.39;46.95
38616;BME280;24370;51.986;4.666;2023-01-27T12:31:12;102909.31;;;11.37;47.50
38616;BME280;24370;51.986;4.666;2023-01-27T12:33:44;102906.59;;;11.79;46.20
38616;BME280;24370;51.986;4.666;2023-01-27T12:36:13;102914.88;;;11.10;47.38
38616;BME280;24370;51.986;4.666;2023-01-27T12:38:50;102906.72;;;11.39;47.21
38616;BME280;24370;51.986;4.666;2023-01-27T12:41:28;102902.00;;;11.67;46.81
38616;BME280;24370;51.986;4.666;2023-01-27T12:43:58;102905.72;;;11.32;47.58
38616;BME280;24370;51.986;4.666;2023-01-27T12:46:27;102903.50;;;10.70;48.47
38616;BME280;24370;51.986;4.666;2023-01-27T12:49:08;102907.16;;;11.18;47.22
38616;BME280;24370;51.986;4.666;2023-01-27T12:51:42;102896.81;;;12.19;45.08
38616;BME280;24370;51.986;4.666;2023-01-27T12:54:15;102896.88;;;11.27;46.61
38616;BME280;24370;51.986;4.666;2023-01-27T12:56:42;102888.41;;;11.41;46.33
38616;BME280;24370;51.986;4.666;2023-01-27T12:59:13;102887.38;;;11.80;45.13
38616;BME280;24370;51.986;4.666;2023-01-27T13:01:40;102883.38;;;11.50;45.06
38616;BME280;24370;51.986;4.666;2023-01-27T13:04:14;102890.34;;;12.55;43.56
38616;BME280;24370;51.986;4.666;2023-01-27T13:06:43;102888.03;;;12.17;44.29
38616;BME280;24370;51.986;4.666;2023-01-27T13:09:24;102895.28;;;11.35;45.83
38616;BME280;24370;51.986;4.666;2023-01-27T13:11:56;102897.91;;;12.33;43.82
38616;BME280;24370;51.986;4.666;2023-01-27T13:14:22;102894.09;;;11.64;44.97
38616;BME280;24370;51.986;4.666;2023-01-27T13:16:53;102890.13;;;11.87;43.57
38616;BME280;24370;51.986;4.666;2023-01-27T13:19:21;102898.00;;;10.97;45.08
38616;BME280;24370;51.986;4.666;2023-01-27T13:21:52;102897.03;;;11.82;43.95
38616;BME280;24370;51.986;4.666;2023-01-27T13:24:31;102894.06;;;12.13;43.96
38616;BME280;24370;51.986;4.666;2023-01-27T13:27:00;102901.91;;;11.18;46.17
38616;BME280;24370;51.986;4.666;2023-01-27T13:29:30;102891.22;;;11.97;44.45
38616;BME280;24370;51.986;4.666;2023-01-27T13:32:03;102908.03;;;11.17;45.43
38616;BME280;24370;51.986;4.666;2023-01-27T13:37:13;102890.78;;;11.76;44.05
38616;BME280;24370;51.986;4.666;2023-01-27T13:40:13;102902.78;;;11.63;44.99
38616;BME280;24370;51.986;4.666;2023-01-27T13:42:52;102893.09;;;11.57;44.98
38616;BME280;24370;51.986;4.666;2023-01-27T13:45:39;102892.84;;;12.47;43.18
38616;BME280;24370;51.986;4.666;2023-01-27T13:48:18;102897.34;;;11.52;45.23
38616;BME280;24370;51.986;4.666;2023-01-27T13:51:00;102906.09;;;10.68;47.06
38616;BME280;24370;51.986;4.666;2023-01-27T13:53:28;102905.53;;;10.82;47.01
38616;BME280;24370;51.986;4.666;2023-01-27T14:01:36;102908.81;;;11.13;46.95
38616;BME280;24370;51.986;4.666;2023-01-27T14:15:34;102898.34;;;11.57;46.21
38616;BME280;24370;51.986;4.666;2023-01-27T14:18:28;102897.06;;;11.85;46.28
38616;BME280;24370;51.986;4.666;2023-01-27T14:21:01;102894.78;;;12.02;45.64
38616;BME280;24370;51.986;4.666;2023-01-27T14:31:28;102911.94;;;10.22;49.06
38616;BME280;24370;51.986;4.666;2023-01-27T14:34:06;102918.34;;;11.55;46.29
38616;BME280;24370;51.986;4.666;2023-01-27T14:36:46;102917.66;;;10.78;48.19